createdAt,value
2018-12-30T00:01:06.167Z,2.07
2018-12-30T00:03:32.997Z,2.30
2018-12-30T00:06:00.113Z,1.70
2018-12-30T00:08:27.023Z,1.70
2018-12-30T00:10:54.177Z,1.40
2018-12-30T00:13:20.958Z,1.43
2018-12-30T00:15:47.591Z,1.90
2018-12-30T00:18:14.194Z,2.20
2018-12-30T00:20:40.499Z,2.10
2018-12-30T00:23:07.125Z,1.90
2018-12-30T00:25:34.065Z,2.00
2018-12-30T00:28:00.559Z,2.10
2018-12-30T00:30:26.847Z,2.50
2018-12-30T00:32:53.109Z,2.20
2018-12-30T00:35:20.024Z,3.00
2018-12-30T00:37:46.634Z,3.00
2018-12-30T00:40:12.922Z,3.63
2018-12-30T00:42:39.398Z,3.87
2018-12-30T00:45:06.782Z,3.37
2018-12-30T00:47:33.402Z,3.80
2018-12-30T00:49:59.686Z,3.80
2018-12-30T00:52:27.676Z,3.77
2018-12-30T00:54:54.325Z,4.40
2018-12-30T00:57:20.790Z,3.80
2018-12-30T00:59:47.130Z,3.90
2018-12-30T01:02:13.933Z,4.37
2018-12-30T01:04:40.210Z,3.77
2018-12-30T01:07:07.342Z,4.37
2018-12-30T01:09:33.934Z,4.40
2018-12-30T01:12:00.537Z,4.77
2018-12-30T01:14:27.662Z,3.80
2018-12-30T01:16:54.482Z,3.50
2018-12-30T01:19:21.087Z,4.37
2018-12-30T01:21:47.395Z,4.30
2018-12-30T01:24:13.643Z,4.20
2018-12-30T01:26:40.298Z,4.57
2018-12-30T01:29:06.909Z,4.27
2018-12-30T01:31:35.705Z,3.70
2018-12-30T01:34:02.321Z,4.20
2018-12-30T01:36:28.617Z,4.80
2018-12-30T01:38:54.877Z,4.17
2018-12-30T01:41:21.527Z,4.43
2018-12-30T01:43:47.781Z,4.23
2018-12-30T01:46:14.400Z,4.47
2018-12-30T01:48:41.005Z,4.17
2018-12-30T01:51:07.657Z,4.13
2018-12-30T01:53:34.166Z,4.20
2018-12-30T01:56:00.691Z,4.77
2018-12-30T01:58:27.306Z,4.87
2018-12-30T02:00:53.598Z,4.60
2018-12-30T02:03:19.865Z,4.10
2018-12-30T02:05:46.504Z,3.97
2018-12-30T02:08:13.118Z,4.73
2018-12-30T02:10:39.743Z,4.27
2018-12-30T02:13:06.293Z,4.00
2018-12-30T02:15:34.694Z,4.70
2018-12-30T02:18:01.093Z,3.83
2018-12-30T02:20:27.706Z,3.27
2018-12-30T02:22:54.418Z,3.57
2018-12-30T02:25:22.902Z,4.20
2018-12-30T02:27:49.180Z,3.80
2018-12-30T02:30:15.440Z,4.60
2018-12-30T02:32:42.074Z,4.03
2018-12-30T02:35:09.297Z,4.37
2018-12-30T02:37:36.230Z,3.07
2018-12-30T02:40:03.353Z,3.90
2018-12-30T02:42:29.994Z,3.77
2018-12-30T02:44:56.614Z,4.63
2018-12-30T02:47:23.131Z,5.07
2018-12-30T02:49:49.383Z,3.27
2018-12-30T02:52:15.673Z,4.00
2018-12-30T02:54:41.950Z,4.40
2018-12-30T02:57:08.213Z,3.57
2018-12-30T02:59:34.494Z,4.00
2018-12-30T03:02:00.801Z,4.10
2018-12-30T03:04:27.338Z,3.77
2018-12-30T03:06:53.973Z,4.73
2018-12-30T03:09:20.575Z,3.83
2018-12-30T03:11:47.449Z,3.60
2018-12-30T03:14:13.850Z,4.00
2018-12-30T03:16:40.477Z,4.53
2018-12-30T03:19:06.757Z,3.97
2018-12-30T03:21:33.544Z,4.03
2018-12-30T03:23:59.805Z,3.73
2018-12-30T03:26:26.281Z,3.53
2018-12-30T03:28:52.922Z,4.30
2018-12-30T03:31:19.539Z,3.43
2018-12-30T03:33:45.817Z,3.70
2018-12-30T03:36:13.425Z,3.90
2018-12-30T03:38:39.722Z,3.50
2018-12-30T03:41:06.341Z,3.57
2018-12-30T03:43:32.631Z,3.27
2018-12-30T03:45:59.255Z,3.50
2018-12-30T03:48:25.528Z,4.03
2018-12-30T03:50:52.094Z,3.87
2018-12-30T03:53:18.729Z,3.40
2018-12-30T03:55:44.984Z,3.67
2018-12-30T03:58:11.631Z,3.93
2018-12-30T04:00:38.142Z,4.27
2018-12-30T04:03:04.401Z,4.47
2018-12-30T04:05:30.935Z,4.60
2018-12-30T04:07:57.222Z,3.57
2018-12-30T04:10:23.846Z,3.37
2018-12-30T04:12:50.579Z,3.50
2018-12-30T04:15:17.238Z,4.23
2018-12-30T04:17:44.854Z,3.73
2018-12-30T04:20:11.505Z,3.13
2018-12-30T04:22:38.430Z,3.40
2018-12-30T04:25:04.719Z,3.77
2018-12-30T04:27:31.106Z,3.23
2018-12-30T04:29:59.646Z,4.27
2018-12-30T04:32:25.916Z,3.37
2018-12-30T04:34:52.895Z,3.60
2018-12-30T04:37:21.427Z,3.43
2018-12-30T04:39:47.972Z,3.93
2018-12-30T04:42:14.705Z,3.13
2018-12-30T04:44:41.127Z,4.10
2018-12-30T04:47:07.374Z,4.13
2018-12-30T04:49:34.307Z,4.10
2018-12-30T04:52:00.925Z,4.43
2018-12-30T04:54:27.566Z,3.87
2018-12-30T04:56:54.195Z,5.10
2018-12-30T04:59:20.470Z,3.90
2018-12-30T05:01:47.866Z,3.80
2018-12-30T05:04:14.134Z,3.37
2018-12-30T05:06:40.485Z,3.57
2018-12-30T05:09:06.742Z,2.97
2018-12-30T05:11:33.394Z,3.27
2018-12-30T05:14:00.102Z,3.60
2018-12-30T05:16:26.745Z,3.00
2018-12-30T05:18:53.350Z,3.50
2018-12-30T05:21:19.998Z,3.10
2018-12-30T05:23:48.149Z,3.60
2018-12-30T05:26:14.430Z,2.70
2018-12-30T05:28:42.952Z,3.17
2018-12-30T05:31:09.252Z,3.00
2018-12-30T05:33:35.929Z,3.17
2018-12-30T05:36:02.338Z,2.70
2018-12-30T05:38:29.944Z,3.07
2018-12-30T05:40:56.598Z,2.80
2018-12-30T05:43:23.106Z,2.47
2018-12-30T05:45:49.759Z,2.70
2018-12-30T05:48:16.386Z,2.27
2018-12-30T05:50:42.677Z,2.90
2018-12-30T05:53:09.162Z,3.13
2018-12-30T05:55:35.640Z,2.93
2018-12-30T05:58:02.465Z,3.10
2018-12-30T06:00:28.846Z,3.40
2018-12-30T06:02:55.099Z,2.60
2018-12-30T06:05:21.762Z,2.63
2018-12-30T06:07:48.381Z,2.40
2018-12-30T06:10:14.644Z,2.87
2018-12-30T06:12:41.271Z,2.70
2018-12-30T06:15:07.529Z,2.40
2018-12-30T06:17:34.018Z,2.90
2018-12-30T06:20:00.645Z,2.23
2018-12-30T06:22:27.297Z,2.20
2018-12-30T06:24:54.021Z,2.60
2018-12-30T06:27:20.306Z,2.77
2018-12-30T06:29:46.571Z,2.60
2018-12-30T06:32:13.213Z,2.80
2018-12-30T06:34:39.529Z,2.40
2018-12-30T06:37:05.837Z,2.70
2018-12-30T06:39:32.453Z,2.57
2018-12-30T06:41:59.097Z,2.13
2018-12-30T06:44:25.399Z,2.50
2018-12-30T06:46:51.662Z,2.77
2018-12-30T06:49:17.933Z,2.90
2018-12-30T06:51:44.222Z,3.10
2018-12-30T06:54:10.846Z,3.23
2018-12-30T06:56:37.507Z,2.90
2018-12-30T06:59:05.653Z,2.40
2018-12-30T07:01:32.305Z,3.23
2018-12-30T07:03:59.285Z,2.07
2018-12-30T07:06:25.900Z,2.47
2018-12-30T07:08:52.546Z,2.50
2018-12-30T07:11:19.426Z,2.33
2018-12-30T07:13:46.084Z,2.60
2018-12-30T07:16:13.161Z,2.37
2018-12-30T07:18:40.078Z,3.00
2018-12-30T07:21:06.697Z,2.40
2018-12-30T07:23:33.223Z,2.10
2018-12-30T07:25:59.793Z,2.80
2018-12-30T07:28:26.430Z,2.43
2018-12-30T07:30:54.585Z,2.13
2018-12-30T07:33:23.107Z,2.20
2018-12-30T07:35:49.425Z,2.40
2018-12-30T07:38:15.718Z,2.30
2018-12-30T07:40:41.981Z,2.10
2018-12-30T07:43:09.433Z,2.33
2018-12-30T07:45:36.049Z,2.03
2018-12-30T07:48:02.714Z,2.23
2018-12-30T07:50:28.957Z,1.80
2018-12-30T07:52:58.331Z,2.23
2018-12-30T07:55:25.222Z,2.50
2018-12-30T07:57:52.662Z,2.00
2018-12-30T08:00:18.921Z,2.50
2018-12-30T08:26:29.310Z,1.80
2018-12-30T08:28:55.978Z,1.93
2018-12-30T08:31:22.670Z,2.07
2018-12-30T08:33:49.318Z,2.50
2018-12-30T08:36:15.945Z,2.50
2018-12-30T08:38:42.622Z,1.80
2018-12-30T08:41:10.139Z,2.13
2018-12-30T08:43:36.816Z,1.90
2018-12-30T08:46:05.356Z,2.23
2018-12-30T08:48:31.602Z,2.37
2018-12-30T08:50:58.227Z,2.00
2018-12-30T08:53:29.380Z,2.47
2018-12-30T08:55:53.362Z,2.27
2018-12-30T08:58:19.658Z,2.40
2018-12-30T09:00:46.030Z,3.23
2018-12-30T09:03:12.382Z,1.77
2018-12-30T09:05:39.000Z,2.43
2018-12-30T09:08:05.270Z,2.73
2018-12-30T09:10:31.926Z,2.37
2018-12-30T09:12:58.548Z,2.30
2018-12-30T09:15:24.829Z,2.17
2018-12-30T09:17:51.514Z,2.80
2018-12-30T09:20:19.739Z,2.57
2018-12-30T09:22:46.106Z,2.80
2018-12-30T09:25:12.352Z,2.90
2018-12-30T09:27:38.622Z,3.10
2018-12-30T09:30:05.357Z,2.47
2018-12-30T09:32:32.038Z,2.73
2018-12-30T09:34:58.693Z,3.20
2018-12-30T09:37:24.946Z,2.97
2018-12-30T09:39:51.251Z,2.93
2018-12-30T09:42:17.890Z,2.60
2018-12-30T09:44:44.182Z,2.50
2018-12-30T09:47:10.454Z,3.00
2018-12-30T09:49:37.098Z,2.07
2018-12-30T09:52:03.825Z,1.90
2018-12-30T09:54:30.469Z,2.30
2018-12-30T09:56:56.731Z,2.63
2018-12-30T09:59:23.009Z,2.40
2018-12-30T10:01:49.272Z,2.37
2018-12-30T10:04:15.945Z,2.83
2018-12-30T10:06:42.572Z,2.50
2018-12-30T10:09:08.870Z,3.10
2018-12-30T10:11:35.482Z,2.97
2018-12-30T10:14:01.761Z,2.30
2018-12-30T10:16:28.322Z,2.90
2018-12-30T10:18:54.582Z,2.90
2018-12-30T10:21:21.235Z,2.50
2018-12-30T10:23:52.912Z,2.00
2018-12-30T10:26:15.959Z,1.93
2018-12-30T10:28:43.353Z,2.43
2018-12-30T10:31:09.843Z,2.60
2018-12-30T10:33:38.028Z,2.37
2018-12-30T10:36:04.735Z,2.10
2018-12-30T10:38:31.352Z,1.90
2018-12-30T10:40:58.016Z,2.27
2018-12-30T10:43:25.890Z,2.40
2018-12-30T10:45:52.189Z,1.57
2018-12-30T10:48:18.454Z,2.07
2018-12-30T10:50:45.386Z,2.20
2018-12-30T10:53:11.646Z,2.20
2018-12-30T10:55:38.313Z,2.63
2018-12-30T10:58:04.554Z,2.57
2018-12-30T11:00:31.994Z,2.50
2018-12-30T11:02:58.609Z,2.30
2018-12-30T11:05:25.243Z,2.47
2018-12-30T11:07:51.509Z,2.73
2018-12-30T11:10:17.810Z,2.80
2018-12-30T11:12:44.431Z,2.60
2018-12-30T11:15:11.268Z,2.30
2018-12-30T11:17:37.652Z,2.83
2018-12-30T11:20:04.955Z,2.77
2018-12-30T11:22:31.569Z,2.10
2018-12-30T11:24:57.933Z,2.70
2018-12-30T11:27:24.554Z,2.30
2018-12-30T11:29:51.169Z,3.13
2018-12-30T11:32:17.663Z,3.10
2018-12-30T11:34:46.244Z,2.60
2018-12-30T11:37:12.791Z,1.97
2018-12-30T11:39:39.060Z,2.00
2018-12-30T11:42:05.712Z,2.30
2018-12-30T11:44:32.323Z,2.57
2018-12-30T11:46:58.961Z,2.70
2018-12-30T11:49:25.210Z,2.37
2018-12-30T11:51:51.858Z,2.53
2018-12-30T11:54:18.477Z,2.30
2018-12-30T11:56:45.051Z,2.80
2018-12-30T11:59:11.322Z,2.57
2018-12-30T12:01:37.964Z,2.63
2018-12-30T12:04:04.246Z,3.40
2018-12-30T12:06:30.551Z,2.80
2018-12-30T12:08:57.237Z,2.40
2018-12-30T12:11:23.510Z,2.47
2018-12-30T12:13:50.125Z,3.00
2018-12-30T12:16:16.773Z,2.80
2018-12-30T12:18:43.402Z,2.40
2018-12-30T12:21:09.704Z,2.30
2018-12-30T12:23:35.962Z,2.33
2018-12-30T12:26:02.235Z,3.37
2018-12-30T12:28:28.969Z,2.27
2018-12-30T12:30:55.593Z,1.97
2018-12-30T12:33:21.877Z,2.03
2018-12-30T12:35:48.505Z,2.57
2018-12-30T12:38:14.814Z,2.40
2018-12-30T12:40:41.424Z,2.63
2018-12-30T12:43:08.082Z,2.00
2018-12-30T12:45:34.709Z,2.83
2018-12-30T12:48:01.348Z,1.87
2018-12-30T12:50:27.969Z,2.10
2018-12-30T12:52:54.270Z,2.53
2018-12-30T12:55:20.878Z,2.30
2018-12-30T12:57:47.525Z,2.27
2018-12-30T13:00:13.792Z,2.20
2018-12-30T13:02:40.445Z,2.80
2018-12-30T13:05:07.062Z,2.50
2018-12-30T13:07:33.362Z,2.20
2018-12-30T13:09:59.973Z,2.67
2018-12-30T13:12:26.617Z,3.17
2018-12-30T13:14:52.886Z,2.20
2018-12-30T13:17:19.542Z,1.80
2018-12-30T13:19:45.814Z,2.17
2018-12-30T13:22:12.097Z,1.80
2018-12-30T13:24:40.125Z,2.50
2018-12-30T13:27:06.586Z,1.60
2018-12-30T13:29:33.210Z,2.23
2018-12-30T13:31:59.846Z,1.53
2018-12-30T13:34:26.509Z,2.23
2018-12-30T13:36:52.785Z,2.33
2018-12-30T13:39:19.450Z,1.90
2018-12-30T13:41:45.711Z,1.80
2018-12-30T13:44:12.655Z,2.40
2018-12-30T13:46:39.220Z,2.27
2018-12-30T13:49:05.862Z,2.00
2018-12-30T13:51:32.437Z,1.53
2018-12-30T13:53:59.366Z,2.13
2018-12-30T13:56:26.033Z,2.50
2018-12-30T13:58:52.693Z,2.27
2018-12-30T14:01:19.323Z,2.07
2018-12-30T14:03:45.973Z,2.43
2018-12-30T14:06:12.600Z,2.40
2018-12-30T14:08:38.886Z,2.30
2018-12-30T14:11:05.512Z,2.13
2018-12-30T14:13:32.154Z,2.27
2018-12-30T14:15:58.458Z,2.00
2018-12-30T14:18:25.109Z,2.17
2018-12-30T14:20:51.742Z,1.87
2018-12-30T14:23:18.402Z,2.50
2018-12-30T14:25:45.129Z,2.20
2018-12-30T14:28:11.468Z,2.10
2018-12-30T14:30:37.698Z,2.43
2018-12-30T14:33:04.362Z,3.67
2018-12-30T14:35:30.629Z,3.90
2018-12-30T14:37:57.253Z,3.20
2018-12-30T14:40:23.861Z,2.83
2018-12-30T14:42:50.128Z,3.10
2018-12-30T14:45:16.769Z,4.07
2018-12-30T14:47:43.382Z,3.00
2018-12-30T14:50:10.234Z,3.40
2018-12-30T14:52:36.850Z,2.73
2018-12-30T14:55:04.236Z,2.70
2018-12-30T14:57:30.939Z,3.03
2018-12-30T14:59:57.574Z,3.07
2018-12-30T15:02:23.846Z,2.83
2018-12-30T15:04:50.126Z,3.10
2018-12-30T15:07:16.751Z,2.80
2018-12-30T15:09:43.109Z,3.10
2018-12-30T15:12:09.374Z,2.73
2018-12-30T15:14:35.659Z,3.10
2018-12-30T15:17:01.922Z,3.03
2018-12-30T15:19:28.587Z,2.70
2018-12-30T15:21:55.201Z,2.67
2018-12-30T15:24:21.866Z,2.13
2018-12-30T15:26:48.129Z,2.93
2018-12-30T15:29:14.425Z,3.03
2018-12-30T15:31:41.052Z,3.50
2018-12-30T15:34:07.394Z,3.13
2018-12-30T15:36:34.007Z,4.37
2018-12-30T15:39:00.633Z,4.97
2018-12-30T15:41:27.255Z,3.40
2018-12-30T15:43:53.505Z,4.67
2018-12-30T15:46:20.366Z,3.30
2018-12-30T15:48:47.017Z,3.83
2018-12-30T15:51:13.278Z,3.63
2018-12-30T15:53:39.904Z,3.40
2018-12-30T15:56:06.207Z,3.47
2018-12-30T15:58:32.834Z,3.03
2018-12-30T16:00:59.664Z,3.60
2018-12-30T16:03:25.921Z,3.53
2018-12-30T16:05:57.549Z,3.80
2018-12-30T16:08:20.621Z,2.90
2018-12-30T16:10:47.293Z,3.53
2018-12-30T16:13:13.902Z,2.73
2018-12-30T16:15:40.562Z,3.20
2018-12-30T16:18:06.826Z,3.10
2018-12-30T16:20:33.126Z,2.97
2018-12-30T16:22:59.742Z,3.20
2018-12-30T16:25:27.350Z,3.63
2018-12-30T16:27:53.787Z,3.63
2018-12-30T16:30:20.082Z,3.33
2018-12-30T16:32:46.715Z,3.03
2018-12-30T16:35:13.365Z,2.73
2018-12-30T16:37:40.122Z,3.30
2018-12-30T16:40:06.917Z,3.03
2018-12-30T16:42:33.525Z,2.60
2018-12-30T16:44:59.794Z,2.80
2018-12-30T16:47:26.053Z,3.47
2018-12-30T16:49:52.313Z,4.13
2018-12-30T16:52:18.975Z,4.47
2018-12-30T16:54:45.600Z,3.57
2018-12-30T16:57:11.883Z,3.53
2018-12-30T16:59:38.150Z,4.03
2018-12-30T17:02:04.736Z,4.37
2018-12-30T17:04:30.981Z,3.23
2018-12-30T17:06:57.642Z,2.80
2018-12-30T17:09:24.265Z,3.53
2018-12-30T17:11:50.933Z,3.63
2018-12-30T17:14:18.018Z,3.87
2018-12-30T17:16:44.681Z,3.77
2018-12-30T17:19:11.313Z,4.00
2018-12-30T17:21:37.957Z,3.53
2018-12-30T17:24:04.585Z,4.00
2018-12-30T17:26:31.281Z,3.63
2018-12-30T17:28:57.548Z,3.60
2018-12-30T17:31:24.188Z,3.53
2018-12-30T17:33:50.485Z,3.40
2018-12-30T17:36:17.145Z,2.70
2018-12-30T17:38:43.764Z,3.97
2018-12-30T17:41:10.075Z,3.10
2018-12-30T17:43:36.334Z,3.30
2018-12-30T17:46:02.949Z,3.43
2018-12-30T17:48:29.573Z,3.23
2018-12-30T17:50:56.185Z,3.60
2018-12-30T17:53:24.392Z,3.00
2018-12-30T17:55:51.185Z,3.10
2018-12-30T17:58:17.756Z,3.13
2018-12-30T18:00:44.046Z,3.30
2018-12-30T18:03:10.337Z,4.10
2018-12-30T18:05:36.988Z,3.93
2018-12-30T18:08:03.851Z,4.53
2018-12-30T18:10:30.486Z,4.20
2018-12-30T18:12:57.133Z,3.93
2018-12-30T18:15:23.402Z,3.33
2018-12-30T18:17:49.685Z,3.43
2018-12-30T18:20:15.968Z,4.40
2018-12-30T18:22:42.282Z,3.27
2018-12-30T18:25:08.897Z,3.73
2018-12-30T18:27:35.179Z,3.70
2018-12-30T18:30:01.920Z,3.37
2018-12-30T18:32:28.592Z,3.33
2018-12-30T18:34:55.639Z,3.10
2018-12-30T18:37:21.950Z,3.37
2018-12-30T18:39:49.321Z,3.60
2018-12-30T18:42:15.586Z,4.00
2018-12-30T18:44:42.206Z,3.77
2018-12-30T18:47:08.468Z,4.00
2018-12-30T18:49:35.097Z,4.30
2018-12-30T18:52:01.705Z,4.30
2018-12-30T18:54:28.337Z,3.37
2018-12-30T18:56:54.609Z,3.60
2018-12-30T18:59:21.301Z,3.57
2018-12-30T19:01:47.680Z,3.07
2018-12-30T19:04:13.986Z,3.93
2018-12-30T19:06:40.610Z,3.90
2018-12-30T19:09:07.305Z,4.00
2018-12-30T19:11:33.550Z,4.07
2018-12-30T19:14:00.206Z,4.23
2018-12-30T19:16:26.825Z,3.37
2018-12-30T19:18:53.138Z,3.80
2018-12-30T19:21:19.409Z,3.13
2018-12-30T19:23:46.065Z,3.27
2018-12-30T19:26:14.385Z,3.03
2018-12-30T19:28:41.154Z,3.23
2018-12-30T19:31:07.765Z,3.43
2018-12-30T19:33:34.065Z,3.70
2018-12-30T19:36:00.866Z,3.77
2018-12-30T19:38:27.490Z,3.90
2018-12-30T19:40:54.473Z,3.63
2018-12-30T19:43:21.095Z,3.90
2018-12-30T19:45:47.809Z,4.40
2018-12-30T19:48:14.346Z,3.50
2018-12-30T19:50:40.688Z,4.00
2018-12-30T19:53:06.933Z,3.73
2018-12-30T19:55:33.578Z,3.97
2018-12-30T19:58:00.173Z,3.80
2018-12-30T20:00:26.812Z,3.80
2018-12-30T20:02:53.438Z,3.57
2018-12-30T20:05:20.094Z,3.77
2018-12-30T20:07:46.716Z,4.43
2018-12-30T20:10:16.207Z,3.60
2018-12-30T20:12:43.994Z,4.80
2018-12-30T20:15:10.745Z,3.70
2018-12-30T20:17:37.019Z,3.87
2018-12-30T20:20:04.610Z,3.87
2018-12-30T20:22:30.866Z,4.47
2018-12-30T20:24:57.552Z,3.83
2018-12-30T20:27:23.778Z,3.30
2018-12-30T20:29:50.057Z,3.97
2018-12-30T20:32:16.677Z,3.73
2018-12-30T20:34:43.322Z,4.53
2018-12-30T20:37:09.958Z,4.63
2018-12-30T20:39:36.282Z,3.53
2018-12-30T20:42:02.541Z,4.03
2018-12-30T20:44:28.801Z,4.13
2018-12-30T20:46:55.232Z,4.17
2018-12-30T20:49:21.473Z,3.90
2018-12-30T20:51:48.314Z,4.10
2018-12-30T20:54:14.581Z,4.60
2018-12-30T20:56:40.887Z,4.67
2018-12-30T20:59:07.496Z,4.80
2018-12-30T21:01:33.801Z,4.10
2018-12-30T21:04:00.721Z,4.17
2018-12-30T21:06:27.005Z,4.73
2018-12-30T21:08:53.641Z,4.73
2018-12-30T21:11:20.300Z,4.50
2018-12-30T21:13:46.567Z,4.40
2018-12-30T21:16:13.209Z,5.07
2018-12-30T21:18:39.820Z,4.30
2018-12-30T21:21:06.102Z,4.70
2018-12-30T21:23:32.365Z,4.83
2018-12-30T21:25:59.010Z,4.20
2018-12-30T21:28:25.643Z,5.20
2018-12-30T21:30:51.946Z,4.00
2018-12-30T21:33:18.578Z,4.53
2018-12-30T21:35:44.854Z,4.50
2018-12-30T21:38:11.496Z,4.47
2018-12-30T21:40:38.150Z,5.70
2018-12-30T21:43:04.418Z,4.93
2018-12-30T21:45:31.045Z,6.20
2018-12-30T21:47:57.670Z,5.50
2018-12-30T21:50:23.925Z,5.17
2018-12-30T21:52:51.603Z,6.30
2018-12-30T21:55:17.880Z,5.27
2018-12-30T21:57:44.186Z,5.23
2018-12-30T22:00:10.462Z,4.80
2018-12-30T22:02:37.122Z,4.83
2018-12-30T22:05:03.889Z,5.60
2018-12-30T22:07:30.541Z,5.53
2018-12-30T22:09:57.154Z,5.43
2018-12-30T22:12:23.812Z,4.30
2018-12-30T22:14:50.093Z,5.60
2018-12-30T22:17:16.395Z,4.40
2018-12-30T22:19:42.662Z,5.60
2018-12-30T22:22:08.962Z,4.93
2018-12-30T22:24:35.589Z,5.03
2018-12-30T22:27:01.892Z,4.63
2018-12-30T22:29:28.153Z,4.87
2018-12-30T22:31:54.798Z,4.43
2018-12-30T22:34:21.428Z,4.97
2018-12-30T22:36:47.709Z,5.20
2018-12-30T22:39:14.602Z,5.33
2018-12-30T22:41:41.254Z,4.70
2018-12-30T22:44:07.887Z,4.17
2018-12-30T22:46:34.178Z,4.20
2018-12-30T22:49:00.432Z,3.80
2018-12-30T22:51:26.725Z,4.23
2018-12-30T22:53:52.994Z,4.93
2018-12-30T22:56:19.614Z,4.77
2018-12-30T22:58:46.245Z,6.03
2018-12-30T23:01:12.713Z,5.00
2018-12-30T23:03:39.011Z,5.17
2018-12-30T23:06:05.279Z,4.03
2018-12-30T23:08:31.945Z,4.33
2018-12-30T23:10:58.209Z,4.30
2018-12-30T23:13:24.861Z,4.43
2018-12-30T23:15:51.481Z,5.03
2018-12-30T23:18:17.790Z,4.90
2018-12-30T23:20:44.429Z,5.10
2018-12-30T23:23:10.732Z,3.73
2018-12-30T23:25:36.989Z,4.37
2018-12-30T23:28:03.274Z,4.10
2018-12-30T23:30:29.900Z,4.20
2018-12-30T23:32:56.595Z,3.87
2018-12-30T23:35:23.213Z,4.60
2018-12-30T23:37:49.866Z,4.10
2018-12-30T23:40:16.475Z,4.47
2018-12-30T23:42:43.125Z,4.30
2018-12-30T23:45:09.394Z,4.67
2018-12-30T23:47:35.700Z,4.67
2018-12-30T23:50:03.533Z,4.30
2018-12-30T23:52:29.790Z,5.00
2018-12-30T23:54:56.437Z,4.23
2018-12-30T23:57:23.066Z,4.80
2018-12-30T23:59:49.709Z,4.50
